Terminal Aerodrome Forecast
Issued by NWS Wilmington, OH

Current Version | Previous Version | Text Only | Print | Product List | Glossary Off
Versions: 1 2 3 4 5 6 7 8 9 10 11 12 13 14 15 16 17 18 19 20

000
FTUS41 KILN 071700
TAFDAY
TAF
KDAY 071730Z 0718/0818 23014G24KT P6SM VCSH BKN035
      TEMPO 0719/0722 5SM -TSRA BKN035CB
     FM080000 22012KT P6SM VCSH BKN040
     FM080800 20010KT P6SM VCSH BKN025
     FM081200 21012KT 5SM -SHRA VCTS BKN025CB
     FM081500 22012G18KT P6SM BKN025=

USA.gov is the U.S. government's official web portal to all federal, state and local government web resources and services.